createdAt,value
2022-10-13T00:01:33.376Z,5.86
2022-10-13T00:04:01.889Z,5.82
2022-10-13T00:06:32.190Z,5.75
2022-10-13T00:09:00.912Z,5.70
2022-10-13T00:11:31.648Z,5.69
2022-10-13T00:14:03.758Z,5.70
2022-10-13T00:16:35.170Z,5.67
2022-10-13T00:19:03.985Z,5.63
2022-10-13T00:21:33.930Z,5.70
2022-10-13T00:24:02.439Z,5.68
2022-10-13T00:26:31.281Z,5.65
2022-10-13T00:28:59.925Z,5.60
2022-10-13T00:31:32.067Z,5.53
2022-10-13T00:34:02.588Z,5.44
2022-10-13T00:36:31.259Z,5.43
2022-10-13T00:39:01.576Z,5.41
2022-10-13T00:41:30.334Z,5.39
2022-10-13T00:44:01.880Z,5.40
2022-10-13T00:46:34.199Z,5.35
2022-10-13T00:49:08.381Z,5.35
2022-10-13T00:51:43.291Z,5.28
2022-10-13T00:54:18.858Z,5.35
2022-10-13T00:56:50.696Z,5.38
2022-10-13T00:59:27.170Z,5.35
2022-10-13T01:01:58.820Z,5.34
2022-10-13T01:04:34.140Z,5.28
2022-10-13T01:07:04.524Z,5.25
2022-10-13T01:09:37.807Z,5.19
2022-10-13T01:12:18.691Z,5.15
2022-10-13T01:14:56.018Z,5.10
2022-10-13T01:17:38.004Z,5.09
2022-10-13T01:20:39.175Z,5.11
2022-10-13T01:23:34.874Z,5.06
2022-10-13T01:26:44.984Z,5.00
2022-10-13T01:29:55.348Z,4.97
2022-10-13T01:32:32.637Z,4.97
2022-10-13T01:35:10.733Z,5.03
2022-10-13T01:37:49.030Z,5.00
2022-10-13T01:40:26.983Z,5.03
2022-10-13T01:43:03.016Z,5.00
2022-10-13T01:45:39.903Z,4.90
2022-10-13T01:48:12.205Z,4.85
2022-10-13T01:50:45.029Z,4.86
2022-10-13T01:53:18.097Z,4.75
2022-10-13T01:55:55.574Z,4.88
2022-10-13T01:58:26.159Z,4.84
2022-10-13T02:01:17.751Z,4.80
2022-10-13T02:04:02.303Z,4.74
2022-10-13T02:06:37.974Z,4.74
2022-10-13T02:09:15.590Z,4.71
2022-10-13T02:11:52.674Z,4.67
2022-10-13T02:14:27.534Z,4.64
2022-10-13T02:17:03.478Z,4.63
2022-10-13T02:19:37.181Z,4.62
2022-10-13T02:22:08.002Z,4.65
2022-10-13T02:24:36.932Z,4.65
2022-10-13T02:27:07.818Z,4.62
2022-10-13T02:29:50.210Z,4.62
2022-10-13T02:32:20.497Z,4.62
2022-10-13T02:34:49.857Z,4.70
2022-10-13T02:37:18.852Z,4.68
2022-10-13T02:39:47.432Z,4.71
2022-10-13T02:42:19.355Z,4.73
2022-10-13T02:44:48.404Z,4.79
2022-10-13T02:47:16.991Z,4.80
2022-10-13T02:49:47.046Z,4.76
2022-10-13T02:52:15.688Z,4.78
2022-10-13T02:54:44.208Z,4.80
2022-10-13T02:57:12.958Z,4.81
2022-10-13T02:59:45.421Z,4.80
2022-10-13T03:02:14.321Z,4.80
2022-10-13T03:04:42.848Z,4.81
2022-10-13T03:07:13.240Z,4.81
2022-10-13T03:09:41.976Z,4.79
2022-10-13T03:12:10.829Z,4.80
2022-10-13T03:14:39.486Z,4.84
2022-10-13T03:17:13.149Z,4.86
2022-10-13T03:19:42.053Z,4.83
2022-10-13T03:22:15.718Z,4.75
2022-10-13T03:24:44.292Z,4.75
2022-10-13T03:27:12.982Z,4.77
2022-10-13T03:29:41.690Z,4.77
2022-10-13T03:32:10.294Z,4.78
2022-10-13T03:34:39.008Z,4.83
2022-10-13T03:37:07.540Z,4.85
2022-10-13T03:39:44.690Z,4.86
2022-10-13T03:42:14.578Z,4.91
2022-10-13T03:44:43.073Z,4.90
2022-10-13T03:47:11.795Z,4.89
2022-10-13T03:49:40.343Z,4.92
2022-10-13T03:52:08.913Z,4.94
2022-10-13T03:54:37.641Z,4.93
2022-10-13T03:57:08.948Z,4.96
2022-10-13T03:59:37.479Z,4.97
2022-10-13T04:02:06.331Z,5.00
2022-10-13T04:04:36.162Z,4.99
2022-10-13T04:07:04.785Z,4.99
2022-10-13T04:09:33.659Z,5.00
2022-10-13T04:12:02.163Z,4.96
2022-10-13T04:14:32.069Z,4.98
2022-10-13T04:17:10.007Z,4.91
2022-10-13T04:19:39.074Z,4.84
2022-10-13T04:22:07.617Z,4.85
2022-10-13T04:24:37.447Z,4.81
2022-10-13T04:27:06.065Z,4.76
2022-10-13T04:29:35.927Z,4.76
2022-10-13T04:32:04.899Z,4.71
2022-10-13T04:34:33.426Z,4.66
2022-10-13T04:37:01.935Z,4.67
2022-10-13T04:39:30.751Z,4.66
2022-10-13T04:41:59.234Z,4.67
2022-10-13T04:44:28.011Z,4.67
2022-10-13T04:46:58.008Z,4.68
2022-10-13T04:49:26.710Z,4.64
2022-10-13T04:51:55.427Z,4.69
2022-10-13T04:54:23.965Z,4.57
2022-10-13T04:56:52.695Z,4.56
2022-10-13T04:59:21.263Z,4.53
2022-10-13T05:01:49.763Z,4.49
2022-10-13T05:04:19.905Z,4.48
2022-10-13T05:07:16.061Z,4.48
2022-10-13T05:09:37.365Z,4.56
2022-10-13T05:12:12.172Z,4.50
2022-10-13T05:14:41.050Z,4.48
2022-10-13T05:17:09.749Z,4.48
2022-10-13T05:19:39.809Z,4.58
2022-10-13T05:22:08.505Z,4.58
2022-10-13T05:24:40.896Z,4.56
2022-10-13T05:27:13.465Z,4.58
2022-10-13T05:29:42.310Z,4.56
2022-10-13T05:32:10.846Z,4.66
2022-10-13T05:34:40.700Z,4.69
2022-10-13T05:37:09.428Z,4.74
2022-10-13T05:39:37.986Z,4.81
2022-10-13T05:42:06.768Z,4.84
2022-10-13T05:44:36.362Z,4.86
2022-10-13T05:47:07.624Z,4.96
2022-10-13T05:49:39.777Z,5.00
2022-10-13T05:52:13.682Z,5.10
2022-10-13T05:54:47.307Z,5.12
2022-10-13T05:57:22.453Z,5.14
2022-10-13T05:59:58.218Z,5.17
2022-10-13T06:02:35.015Z,5.22
2022-10-13T06:05:06.829Z,5.32
2022-10-13T06:07:37.098Z,5.39
2022-10-13T06:10:07.247Z,5.47
2022-10-13T06:12:36.248Z,5.54
2022-10-13T06:15:05.595Z,5.62
2022-10-13T06:17:37.309Z,5.73
2022-10-13T06:20:07.740Z,5.83
2022-10-13T06:22:40.053Z,5.95
2022-10-13T06:25:10.485Z,6.03
2022-10-13T06:27:39.233Z,6.13
2022-10-13T06:30:09.689Z,6.25
2022-10-13T06:32:39.023Z,6.36
2022-10-13T06:35:09.131Z,6.45
2022-10-13T06:37:39.398Z,6.54
2022-10-13T06:40:13.121Z,6.58
2022-10-13T06:42:41.963Z,6.72
2022-10-13T06:45:12.130Z,6.83
2022-10-13T06:47:42.379Z,7.00
2022-10-13T06:50:11.468Z,7.04
2022-10-13T06:52:41.502Z,7.10
2022-10-13T06:55:10.761Z,7.25
2022-10-13T06:57:39.589Z,7.47
2022-10-13T07:00:11.122Z,7.54
2022-10-13T07:02:40.609Z,7.63
2022-10-13T07:05:10.120Z,7.75
2022-10-13T07:07:38.921Z,7.78
2022-10-13T07:10:10.216Z,7.97
2022-10-13T07:12:39.963Z,8.17
2022-10-13T07:15:10.074Z,8.34
2022-10-13T07:17:39.201Z,8.48
2022-10-13T07:20:09.507Z,8.53
2022-10-13T07:22:38.041Z,8.71
2022-10-13T07:25:09.883Z,8.82
2022-10-13T07:27:40.828Z,8.99
2022-10-13T07:30:10.323Z,9.20
2022-10-13T07:32:39.429Z,9.41
2022-10-13T07:35:08.826Z,9.51
2022-10-13T07:37:37.746Z,9.62
2022-10-13T07:40:09.976Z,9.76
2022-10-13T07:42:38.555Z,9.96
2022-10-13T07:45:09.397Z,10.09
2022-10-13T07:47:37.981Z,10.25
2022-10-13T07:50:07.786Z,10.42
2022-10-13T07:52:37.163Z,10.44
2022-10-13T07:55:08.893Z,10.33
2022-10-13T07:57:37.806Z,10.46
2022-10-13T08:00:08.537Z,10.62
2022-10-13T08:02:42.961Z,10.66
2022-10-13T08:05:11.518Z,10.85
2022-10-13T08:07:40.293Z,11.02
2022-10-13T08:10:11.277Z,11.19
2022-10-13T08:12:40.573Z,11.34
2022-10-13T08:15:11.959Z,11.52
2022-10-13T08:17:40.804Z,11.69
2022-10-13T08:20:10.738Z,11.64
2022-10-13T08:22:39.520Z,11.87
2022-10-13T08:25:11.215Z,11.89
2022-10-13T08:27:50.644Z,12.02
2022-10-13T08:30:20.675Z,12.26
2022-10-13T08:32:49.550Z,12.24
2022-10-13T08:35:18.266Z,12.38
2022-10-13T08:37:46.841Z,12.56
2022-10-13T08:40:21.849Z,12.72
2022-10-13T08:42:51.057Z,12.72
2022-10-13T08:45:40.928Z,12.42
2022-10-13T08:48:17.161Z,12.70
2022-10-13T08:50:50.389Z,12.87
2022-10-13T08:53:29.121Z,13.07
2022-10-13T08:56:03.863Z,13.16
2022-10-13T08:58:38.378Z,13.41
2022-10-13T09:01:15.912Z,13.49
2022-10-13T09:03:55.710Z,13.78
2022-10-13T09:06:28.831Z,13.78
2022-10-13T09:09:01.907Z,13.84
2022-10-13T09:11:35.954Z,14.14
2022-10-13T09:14:08.031Z,14.90
2022-10-13T09:16:40.907Z,16.19
2022-10-13T09:19:23.499Z,17.26
2022-10-13T09:21:54.469Z,17.85
2022-10-13T09:24:26.082Z,18.58
2022-10-13T09:27:12.761Z,17.46
2022-10-13T09:29:43.127Z,17.47
2022-10-13T09:32:19.986Z,17.22
2022-10-13T09:34:49.815Z,16.35
2022-10-13T09:37:22.302Z,15.40
2022-10-13T09:40:12.993Z,15.55
2022-10-13T09:42:43.165Z,15.51
2022-10-13T09:45:18.720Z,15.41
2022-10-13T09:47:54.249Z,14.80
2022-10-13T09:50:26.759Z,14.90
2022-10-13T09:53:16.396Z,15.12
2022-10-13T09:55:48.543Z,15.04
2022-10-13T09:58:32.137Z,15.17
2022-10-13T10:01:01.318Z,14.97
2022-10-13T10:03:38.201Z,14.88
2022-10-13T10:06:12.414Z,14.58
2022-10-13T10:09:02.869Z,14.66
2022-10-13T10:11:40.530Z,14.71
2022-10-13T10:14:22.892Z,14.93
2022-10-13T10:17:01.383Z,15.12
2022-10-13T10:19:48.848Z,14.96
2022-10-13T10:22:31.492Z,14.88
2022-10-13T10:25:27.311Z,15.32
2022-10-13T10:28:42.549Z,16.26
2022-10-13T10:31:33.941Z,18.26
2022-10-13T10:34:28.585Z,19.88
2022-10-13T10:37:22.725Z,20.82
2022-10-13T10:40:07.973Z,21.44
2022-10-13T10:43:04.350Z,20.66
2022-10-13T10:45:39.540Z,20.33
2022-10-13T10:48:23.039Z,18.36
2022-10-13T10:50:54.327Z,18.38
2022-10-13T10:53:35.151Z,18.16
2022-10-13T10:56:17.033Z,17.93
2022-10-13T10:59:03.291Z,18.00
2022-10-13T11:01:42.946Z,17.90
2022-10-13T11:04:41.911Z,17.88
2022-10-13T11:07:35.942Z,17.37
2022-10-13T11:10:22.001Z,17.15
2022-10-13T11:13:27.762Z,17.32
2022-10-13T11:15:56.644Z,17.06
2022-10-13T11:19:25.869Z,17.14
2022-10-13T11:22:23.846Z,17.27
2022-10-13T11:25:24.729Z,17.22
2022-10-13T11:27:53.519Z,16.75
2022-10-13T11:30:44.854Z,16.64
2022-10-13T11:33:54.832Z,16.51
2022-10-13T11:36:56.897Z,16.38
2022-10-13T11:40:10.316Z,16.19
2022-10-13T11:43:39.047Z,15.99
2022-10-13T11:46:24.039Z,15.57
2022-10-13T11:49:32.642Z,15.92
2022-10-13T11:52:30.342Z,15.44
2022-10-13T11:55:12.373Z,15.68
2022-10-13T11:57:42.640Z,15.64
2022-10-13T12:00:21.113Z,15.75
2022-10-13T12:02:53.487Z,15.51
2022-10-13T12:05:26.505Z,15.46
2022-10-13T12:08:00.302Z,15.34
2022-10-13T12:10:34.889Z,15.42
2022-10-13T12:13:06.310Z,15.30
2022-10-13T12:15:38.945Z,15.23
2022-10-13T12:18:23.951Z,15.30
2022-10-13T12:20:58.302Z,14.99
2022-10-13T12:23:27.974Z,15.00
2022-10-13T12:25:59.180Z,14.99
2022-10-13T12:28:31.903Z,15.00
2022-10-13T12:31:01.726Z,14.95
2022-10-13T12:33:35.382Z,14.75
2022-10-13T12:36:18.787Z,14.59
2022-10-13T12:38:53.626Z,14.75
2022-10-13T12:41:28.636Z,14.64
2022-10-13T12:44:01.144Z,14.43
2022-10-13T12:46:45.129Z,14.49
2022-10-13T12:49:17.131Z,14.58
2022-10-13T12:51:49.313Z,14.65
2022-10-13T12:54:24.478Z,14.61
2022-10-13T12:57:00.347Z,14.53
2022-10-13T12:59:31.848Z,14.64
2022-10-13T13:02:04.640Z,14.59
2022-10-13T13:04:43.887Z,14.66
2022-10-13T13:07:33.845Z,14.65
2022-10-13T13:10:19.600Z,14.64
2022-10-13T13:12:51.185Z,14.60
2022-10-13T13:15:33.685Z,14.50
2022-10-13T13:18:32.128Z,14.40
2022-10-13T13:21:01.998Z,14.43
2022-10-13T13:23:34.366Z,14.43
2022-10-13T13:26:14.385Z,14.41
2022-10-13T13:28:48.412Z,14.40
2022-10-13T13:31:19.959Z,14.37
2022-10-13T13:33:49.453Z,14.43
2022-10-13T13:36:21.681Z,14.52
2022-10-13T13:38:55.187Z,14.53
2022-10-13T13:41:27.716Z,14.46
2022-10-13T13:43:57.974Z,14.35
2022-10-13T13:46:29.134Z,14.31
2022-10-13T13:48:57.647Z,14.27
2022-10-13T13:51:26.270Z,14.30
2022-10-13T13:53:55.066Z,14.34
2022-10-13T13:56:23.601Z,14.36
2022-10-13T13:58:52.353Z,14.42
2022-10-13T14:01:22.848Z,14.32
2022-10-13T14:03:51.407Z,14.34
2022-10-13T14:06:23.003Z,14.24
2022-10-13T14:08:51.711Z,14.25
2022-10-13T14:11:21.338Z,14.29
2022-10-13T14:13:50.257Z,14.25
2022-10-13T14:16:28.160Z,14.11
2022-10-13T14:18:58.232Z,14.12
2022-10-13T14:21:28.235Z,14.05
2022-10-13T14:23:58.943Z,14.05
2022-10-13T14:26:27.717Z,14.03
2022-10-13T14:28:58.437Z,13.95
2022-10-13T14:31:28.761Z,13.99
2022-10-13T14:33:57.971Z,13.93
2022-10-13T14:36:29.493Z,13.91
2022-10-13T14:38:58.228Z,13.88
2022-10-13T14:41:27.361Z,13.84
2022-10-13T14:43:57.791Z,13.84
2022-10-13T14:46:28.315Z,13.83
2022-10-13T14:48:58.457Z,13.76
2022-10-13T14:51:27.238Z,13.74
2022-10-13T14:53:56.384Z,13.72
2022-10-13T14:56:29.667Z,13.57
2022-10-13T14:59:00.961Z,13.56
2022-10-13T15:01:41.390Z,13.53
2022-10-13T15:04:10.957Z,13.46
2022-10-13T15:06:41.112Z,13.43
2022-10-13T15:09:12.347Z,13.33
2022-10-13T15:11:40.940Z,13.24
2022-10-13T15:14:09.947Z,13.24
2022-10-13T15:16:40.068Z,13.06
2022-10-13T15:19:08.817Z,13.03
2022-10-13T15:21:37.540Z,12.90
2022-10-13T15:24:06.789Z,12.76
2022-10-13T15:26:36.864Z,12.69
2022-10-13T15:29:05.586Z,12.60
2022-10-13T15:31:34.302Z,12.49
2022-10-13T15:34:04.379Z,12.48
2022-10-13T15:36:33.126Z,12.39
2022-10-13T15:39:01.903Z,12.31
2022-10-13T15:41:30.445Z,12.20
2022-10-13T15:43:59.387Z,12.09
2022-10-13T15:46:29.818Z,11.96
2022-10-13T15:48:59.981Z,11.94
2022-10-13T15:51:30.324Z,11.91
2022-10-13T15:53:58.943Z,11.82
2022-10-13T15:56:27.739Z,11.73
2022-10-13T15:58:56.277Z,11.64
2022-10-13T16:01:25.268Z,11.66
2022-10-13T16:03:55.477Z,11.70
2022-10-13T16:06:24.845Z,11.65
2022-10-13T16:08:55.146Z,11.49
2022-10-13T16:11:24.409Z,11.31
2022-10-13T16:13:53.972Z,11.07
2022-10-13T16:16:23.257Z,10.93
2022-10-13T16:18:52.419Z,10.82
2022-10-13T16:21:25.819Z,10.71
2022-10-13T16:23:56.630Z,10.61
2022-10-13T16:26:25.779Z,10.47
2022-10-13T16:28:56.769Z,10.42
2022-10-13T16:31:25.862Z,10.45
2022-10-13T16:33:55.551Z,10.36
2022-10-13T16:36:25.300Z,10.38
2022-10-13T16:38:56.079Z,10.37
2022-10-13T16:41:25.814Z,10.27
2022-10-13T16:43:54.562Z,10.24
2022-10-13T16:46:23.482Z,10.18
2022-10-13T16:48:52.385Z,10.09
2022-10-13T16:51:24.014Z,10.10
2022-10-13T16:54:01.166Z,10.15
2022-10-13T16:56:32.970Z,10.14
2022-10-13T16:59:05.231Z,10.05
2022-10-13T17:01:36.371Z,10.05
2022-10-13T17:04:06.434Z,10.09
2022-10-13T17:06:38.679Z,10.07
2022-10-13T17:09:10.691Z,10.10
2022-10-13T17:11:42.772Z,10.02
2022-10-13T17:14:11.971Z,9.98
2022-10-13T17:16:40.485Z,9.98
2022-10-13T17:19:09.230Z,9.90
2022-10-13T17:21:38.981Z,9.79
2022-10-13T17:24:11.922Z,9.77
2022-10-13T17:26:41.015Z,9.73
2022-10-13T17:29:09.972Z,9.69
2022-10-13T17:31:39.117Z,9.64
2022-10-13T17:34:09.325Z,9.60
2022-10-13T17:36:38.101Z,9.52
2022-10-13T17:39:14.268Z,9.47
2022-10-13T17:41:43.259Z,9.52
2022-10-13T17:44:12.383Z,9.60
2022-10-13T17:46:41.022Z,9.51
2022-10-13T17:49:13.414Z,9.53
2022-10-13T17:51:43.601Z,9.47
2022-10-13T17:54:16.503Z,9.45
2022-10-13T17:56:47.443Z,9.40
2022-10-13T17:59:18.399Z,9.30
2022-10-13T18:01:47.354Z,9.24
2022-10-13T18:04:19.225Z,9.28
2022-10-13T18:06:48.575Z,9.24
2022-10-13T18:09:23.303Z,9.26
2022-10-13T18:11:55.235Z,9.22
2022-10-13T18:14:26.036Z,9.16
2022-10-13T18:16:55.381Z,9.05
2022-10-13T18:19:24.172Z,9.00
2022-10-13T18:21:53.339Z,8.94
2022-10-13T18:24:25.183Z,8.95
2022-10-13T18:26:54.949Z,8.90
2022-10-13T18:29:25.527Z,8.97
2022-10-13T18:31:56.492Z,8.93
2022-10-13T18:34:25.118Z,8.91
2022-10-13T18:36:55.923Z,8.88
2022-10-13T18:39:30.120Z,8.91
2022-10-13T18:41:59.257Z,8.87
2022-10-13T18:44:35.937Z,8.85
2022-10-13T18:47:04.647Z,8.83
2022-10-13T18:49:33.325Z,8.77
2022-10-13T18:52:03.081Z,8.78
2022-10-13T18:54:33.733Z,8.74
2022-10-13T18:57:02.950Z,8.75
2022-10-13T18:59:31.544Z,8.80
2022-10-13T19:02:00.312Z,8.77
2022-10-13T19:04:29.107Z,8.75
2022-10-13T19:06:57.613Z,8.74
2022-10-13T19:09:26.430Z,8.70
2022-10-13T19:11:57.877Z,8.80
2022-10-13T19:14:27.553Z,8.74
2022-10-13T19:17:00.876Z,8.59
2022-10-13T19:19:31.604Z,8.64
2022-10-13T19:22:02.278Z,8.57
2022-10-13T19:24:31.471Z,8.55
2022-10-13T19:27:01.373Z,8.53
2022-10-13T19:29:32.762Z,8.47
2022-10-13T19:32:01.938Z,8.48
2022-10-13T19:34:30.759Z,8.46
2022-10-13T19:37:01.806Z,8.44
2022-10-13T19:39:30.776Z,8.41
2022-10-13T19:42:01.085Z,8.36
2022-10-13T19:44:30.000Z,8.37
2022-10-13T19:46:58.545Z,8.35
2022-10-13T19:49:27.312Z,8.51
2022-10-13T19:51:56.630Z,8.45
2022-10-13T19:54:30.189Z,8.31
2022-10-13T19:57:03.349Z,8.21
2022-10-13T19:59:32.147Z,8.15
2022-10-13T20:02:00.766Z,8.10
2022-10-13T20:04:29.863Z,8.08
2022-10-13T20:06:58.433Z,8.01
2022-10-13T20:09:27.364Z,7.91
2022-10-13T20:11:56.614Z,7.83
2022-10-13T20:14:26.695Z,7.81
2022-10-13T20:16:56.960Z,7.62
2022-10-13T20:19:25.721Z,7.48
2022-10-13T20:21:54.352Z,7.38
2022-10-13T20:24:23.880Z,7.34
2022-10-13T20:26:52.576Z,7.28
2022-10-13T20:29:24.445Z,7.23
2022-10-13T20:31:54.419Z,7.20
2022-10-13T20:34:23.046Z,7.24
2022-10-13T20:36:52.032Z,7.42
2022-10-13T20:39:20.779Z,7.30
2022-10-13T20:41:49.327Z,7.40
2022-10-13T20:44:19.308Z,7.32
2022-10-13T20:46:47.872Z,7.14
2022-10-13T20:49:18.000Z,7.05
2022-10-13T20:51:47.142Z,6.95
2022-10-13T20:54:17.135Z,6.90
2022-10-13T20:56:47.275Z,6.84
2022-10-13T20:59:16.279Z,6.76
2022-10-13T21:01:44.999Z,6.71
2022-10-13T21:04:14.173Z,6.67
2022-10-13T21:06:44.547Z,6.63
2022-10-13T21:09:13.780Z,6.66
2022-10-13T21:11:44.277Z,6.64
2022-10-13T21:14:13.011Z,6.66
2022-10-13T21:16:43.371Z,6.63
2022-10-13T21:19:13.171Z,6.63
2022-10-13T21:21:43.319Z,6.65
2022-10-13T21:24:12.337Z,6.67
2022-10-13T21:26:42.126Z,6.69
2022-10-13T21:29:15.795Z,6.75
2022-10-13T21:31:44.573Z,6.78
2022-10-13T21:34:13.958Z,6.85
2022-10-13T21:36:45.406Z,6.82
2022-10-13T21:39:15.365Z,6.81
2022-10-13T21:41:44.404Z,6.78
2022-10-13T21:44:15.051Z,6.76
2022-10-13T21:46:43.651Z,6.65
2022-10-13T21:49:12.509Z,6.65
2022-10-13T21:51:43.012Z,6.55
2022-10-13T21:54:15.140Z,6.47
2022-10-13T21:56:44.785Z,6.36
2022-10-13T21:59:14.721Z,6.35
2022-10-13T22:01:44.079Z,6.34
2022-10-13T22:04:16.601Z,6.30
2022-10-13T22:06:46.595Z,6.31
2022-10-13T22:09:15.611Z,6.28
2022-10-13T22:11:45.619Z,6.27
2022-10-13T22:14:14.698Z,6.28
2022-10-13T22:16:46.879Z,6.28
2022-10-13T22:19:18.173Z,6.26
2022-10-13T22:21:50.447Z,6.29
2022-10-13T22:24:21.867Z,6.30
2022-10-13T22:26:51.613Z,6.31
2022-10-13T22:29:23.625Z,6.31
2022-10-13T22:31:56.949Z,6.29
2022-10-13T22:34:25.771Z,6.28
2022-10-13T22:36:55.724Z,6.27
2022-10-13T22:39:24.474Z,6.25
2022-10-13T22:41:55.057Z,6.26
2022-10-13T22:44:23.562Z,6.22
2022-10-13T22:46:52.115Z,6.26
2022-10-13T22:49:20.815Z,6.25
2022-10-13T22:51:49.313Z,6.23
2022-10-13T22:54:19.201Z,6.24
2022-10-13T22:56:48.000Z,6.24
2022-10-13T22:59:16.673Z,6.25
2022-10-13T23:01:45.253Z,6.25
2022-10-13T23:04:13.977Z,6.25
2022-10-13T23:06:42.557Z,6.27
2022-10-13T23:09:14.741Z,6.32
2022-10-13T23:11:44.842Z,6.39
2022-10-13T23:14:19.889Z,6.34
2022-10-13T23:16:48.855Z,6.33
2022-10-13T23:19:19.520Z,6.31
2022-10-13T23:21:48.110Z,6.33
2022-10-13T23:24:17.082Z,6.31
2022-10-13T23:26:47.068Z,6.34
2022-10-13T23:29:15.683Z,6.36
2022-10-13T23:31:44.386Z,6.34
2022-10-13T23:34:12.925Z,6.36
2022-10-13T23:36:41.657Z,6.33
2022-10-13T23:39:12.412Z,6.36
2022-10-13T23:41:41.971Z,6.33
2022-10-13T23:44:12.166Z,6.30
2022-10-13T23:46:40.879Z,6.28
2022-10-13T23:49:13.944Z,6.36
2022-10-13T23:51:45.303Z,6.37
2022-10-13T23:54:14.110Z,6.72
2022-10-13T23:56:43.325Z,6.54
2022-10-13T23:59:13.224Z,6.52
